createdAt,value
2023-04-10T00:01:02.222Z,100.00
2023-04-10T00:03:31.494Z,100.00
2023-04-10T00:06:00.464Z,100.00
2023-04-10T00:08:29.002Z,100.00
2023-04-10T00:10:57.416Z,100.00
2023-04-10T00:13:26.189Z,100.00
2023-04-10T00:15:56.056Z,100.00
2023-04-10T00:18:24.487Z,100.00
2023-04-10T00:20:52.897Z,100.00
2023-04-10T00:23:21.658Z,100.00
2023-04-10T00:25:50.406Z,100.00
2023-04-10T00:28:19.150Z,100.00
2023-04-10T00:30:47.619Z,100.00
2023-04-10T00:33:17.547Z,100.00
2023-04-10T00:35:46.268Z,100.00
2023-04-10T00:38:15.135Z,100.00
2023-04-10T00:40:43.910Z,100.00
2023-04-10T00:43:12.801Z,100.00
2023-04-10T00:45:42.137Z,100.00
2023-04-10T00:48:10.819Z,100.00
2023-04-10T00:50:40.933Z,100.00
2023-04-10T00:53:09.665Z,100.00
2023-04-10T00:55:38.500Z,100.00
2023-04-10T00:58:07.545Z,100.00
2023-04-10T01:00:36.013Z,100.00
2023-04-10T01:03:05.538Z,100.00
2023-04-10T01:05:43.223Z,100.00
2023-04-10T01:08:27.851Z,100.00
2023-04-10T01:11:11.107Z,100.00
2023-04-10T01:13:51.958Z,100.00
2023-04-10T01:16:29.557Z,100.00
2023-04-10T01:19:12.807Z,100.00
2023-04-10T01:21:43.791Z,100.00
2023-04-10T01:24:35.514Z,100.00
2023-04-10T01:27:22.104Z,100.00
2023-04-10T01:29:58.617Z,100.00
2023-04-10T01:32:34.958Z,100.00
2023-04-10T01:35:08.667Z,100.00
2023-04-10T01:37:43.770Z,100.00
2023-04-10T01:40:17.560Z,100.00
2023-04-10T01:42:54.112Z,100.00
2023-04-10T01:45:29.937Z,100.00
2023-04-10T01:47:59.410Z,100.00
2023-04-10T01:50:31.263Z,100.00
2023-04-10T01:53:03.762Z,100.00
2023-04-10T01:55:34.604Z,100.00
2023-04-10T01:58:07.208Z,100.00
2023-04-10T02:00:42.972Z,100.00
2023-04-10T02:03:13.014Z,100.00
2023-04-10T02:05:58.084Z,100.00
2023-04-10T02:08:34.620Z,100.00
2023-04-10T02:11:19.581Z,100.00
2023-04-10T02:13:52.278Z,100.00
2023-04-10T02:16:24.790Z,100.00
2023-04-10T02:18:54.094Z,100.00
2023-04-10T02:21:23.111Z,100.00
2023-04-10T02:23:52.226Z,100.00
2023-04-10T02:26:21.136Z,100.00
2023-04-10T02:28:49.842Z,100.00
2023-04-10T02:31:18.904Z,100.00
2023-04-10T02:33:48.837Z,100.00
2023-04-10T02:36:17.308Z,100.00
2023-04-10T02:38:46.036Z,100.00
2023-04-10T02:41:15.727Z,100.00
2023-04-10T02:43:44.362Z,100.00
2023-04-10T02:46:13.164Z,100.00
2023-04-10T02:48:42.026Z,100.00
2023-04-10T02:51:11.837Z,100.00
2023-04-10T02:53:40.425Z,100.00
2023-04-10T02:56:11.777Z,100.00
2023-04-10T02:58:45.453Z,100.00
2023-04-10T03:01:16.202Z,100.00
2023-04-10T03:03:46.650Z,100.00
2023-04-10T03:06:26.217Z,100.00
2023-04-10T03:08:56.277Z,100.00
2023-04-10T03:11:24.734Z,100.00
2023-04-10T03:13:53.239Z,100.00
2023-04-10T03:16:21.902Z,100.00
2023-04-10T03:18:50.803Z,100.00
2023-04-10T03:21:19.296Z,100.00
2023-04-10T03:23:49.138Z,100.00
2023-04-10T03:26:17.824Z,100.00
2023-04-10T03:28:46.567Z,100.00
2023-04-10T03:31:15.513Z,100.00
2023-04-10T03:33:46.354Z,100.00
2023-04-10T03:36:15.175Z,100.00
2023-04-10T03:38:43.930Z,100.00
2023-04-10T03:41:13.763Z,100.00
2023-04-10T03:43:42.544Z,100.00
2023-04-10T03:46:11.116Z,100.00
2023-04-10T03:48:43.633Z,100.00
2023-04-10T03:51:12.404Z,100.00
2023-04-10T03:53:40.840Z,100.00
2023-04-10T03:56:15.897Z,100.00
2023-04-10T03:58:45.234Z,100.00
2023-04-10T04:01:15.754Z,100.00
2023-04-10T04:04:07.139Z,100.00
2023-04-10T04:07:08.932Z,100.00
2023-04-10T04:09:56.533Z,100.00
2023-04-10T04:12:53.035Z,100.00
2023-04-10T04:15:38.296Z,100.00
2023-04-10T04:18:18.701Z,100.00
2023-04-10T04:20:51.204Z,100.00
2023-04-10T04:23:36.675Z,100.00
2023-04-10T04:26:27.314Z,100.00
2023-04-10T04:29:26.396Z,100.00
2023-04-10T04:32:07.660Z,100.00
2023-04-10T04:34:42.211Z,100.00
2023-04-10T04:37:37.396Z,100.00
2023-04-10T04:40:26.045Z,100.00
2023-04-10T04:43:06.490Z,100.00
2023-04-10T04:45:54.865Z,100.00
2023-04-10T04:48:40.738Z,100.00
2023-04-10T04:51:28.050Z,100.00
2023-04-10T04:54:25.775Z,100.00
2023-04-10T04:57:14.194Z,100.00
2023-04-10T05:00:07.651Z,100.00
2023-04-10T05:03:10.086Z,100.00
2023-04-10T05:05:59.340Z,100.00
2023-04-10T05:08:54.087Z,100.00
2023-04-10T05:11:25.642Z,100.00
2023-04-10T05:14:12.704Z,100.00
2023-04-10T05:17:02.939Z,100.00
2023-04-10T05:20:07.152Z,100.00
2023-04-10T05:23:01.538Z,100.00
2023-04-10T05:25:52.885Z,100.00
2023-04-10T05:28:41.565Z,100.00
2023-04-10T05:31:25.703Z,100.00
2023-04-10T05:34:12.810Z,100.00
2023-04-10T05:37:01.046Z,100.00
2023-04-10T05:40:06.137Z,100.00
2023-04-10T05:42:52.714Z,100.00
2023-04-10T05:45:30.142Z,100.00
2023-04-10T05:48:17.277Z,100.00
2023-04-10T05:51:11.637Z,100.00
2023-04-10T05:53:59.270Z,100.00
2023-04-10T05:56:41.503Z,100.00
2023-04-10T05:59:29.982Z,100.00
2023-04-10T06:02:24.705Z,100.00
2023-04-10T06:04:53.865Z,100.00
2023-04-10T06:07:22.577Z,100.00
2023-04-10T06:09:52.334Z,100.00
2023-04-10T06:12:20.833Z,100.00
2023-04-10T06:14:49.777Z,100.00
2023-04-10T06:17:21.868Z,100.00
2023-04-10T06:19:50.546Z,100.00
2023-04-10T06:22:19.265Z,100.00
2023-04-10T06:24:47.749Z,100.00
2023-04-10T06:27:18.626Z,100.00
2023-04-10T06:29:48.313Z,100.00
2023-04-10T06:32:21.334Z,100.00
2023-04-10T06:34:49.968Z,100.00
2023-04-10T06:37:18.400Z,100.00
2023-04-10T06:39:47.712Z,100.00
2023-04-10T06:42:17.563Z,100.00
2023-04-10T06:44:57.840Z,100.00
2023-04-10T06:47:26.284Z,100.00
2023-04-10T06:49:54.893Z,100.00
2023-04-10T06:52:23.375Z,100.00
2023-04-10T06:54:51.797Z,100.00
2023-04-10T06:57:21.600Z,100.00
2023-04-10T06:59:50.067Z,100.00
2023-04-10T07:02:18.594Z,100.00
2023-04-10T07:04:47.121Z,100.00
2023-04-10T07:07:16.046Z,100.00
2023-04-10T07:09:44.898Z,100.00
2023-04-10T07:12:13.458Z,100.00
2023-04-10T07:14:43.452Z,100.00
2023-04-10T07:17:11.920Z,100.00
2023-04-10T07:19:40.311Z,100.00
2023-04-10T07:22:08.897Z,100.00
2023-04-10T07:24:37.420Z,100.00
2023-04-10T07:27:05.976Z,100.00
2023-04-10T07:29:34.407Z,100.00
2023-04-10T07:32:04.303Z,100.00
2023-04-10T07:34:32.928Z,100.00
2023-04-10T07:37:01.423Z,100.00
2023-04-10T07:39:29.847Z,100.00
2023-04-10T07:41:58.301Z,100.00
2023-04-10T07:44:28.670Z,100.00
2023-04-10T07:46:57.142Z,100.00
2023-04-10T07:49:27.203Z,100.00
2023-04-10T07:51:55.857Z,100.00
2023-04-10T07:54:24.312Z,100.00
2023-04-10T07:56:54.189Z,100.00
2023-04-10T07:59:22.577Z,99.94
2023-04-10T08:01:51.037Z,95.81
2023-04-10T08:04:19.690Z,97.73
2023-04-10T08:06:50.646Z,96.26
2023-04-10T08:09:19.088Z,93.69
2023-04-10T08:12:08.374Z,95.85
2023-04-10T08:14:36.916Z,93.84
2023-04-10T08:17:05.569Z,92.36
2023-04-10T08:19:34.033Z,91.21
2023-04-10T08:22:03.912Z,88.04
2023-04-10T08:24:32.342Z,88.37
2023-04-10T08:27:01.795Z,88.45
2023-04-10T08:29:30.383Z,86.62
2023-04-10T08:32:01.499Z,85.61
2023-04-10T08:34:29.892Z,85.58
2023-04-10T08:36:58.811Z,86.38
2023-04-10T08:39:28.904Z,84.67
2023-04-10T08:41:57.508Z,82.86
2023-04-10T08:44:25.971Z,78.94
2023-04-10T08:46:56.705Z,77.89
2023-04-10T08:49:33.674Z,79.06
2023-04-10T08:52:07.911Z,79.85
2023-04-10T08:54:41.608Z,80.07
2023-04-10T08:57:17.701Z,82.68
2023-04-10T08:59:46.193Z,83.30
2023-04-10T09:02:15.029Z,85.99
2023-04-10T09:04:50.153Z,89.61
2023-04-10T09:07:19.042Z,88.21
2023-04-10T09:09:48.812Z,87.72
2023-04-10T09:12:18.420Z,85.07
2023-04-10T09:14:48.765Z,86.17
2023-04-10T09:17:20.004Z,87.19
2023-04-10T09:19:50.584Z,89.55
2023-04-10T09:22:19.591Z,92.97
2023-04-10T09:24:49.424Z,94.11
2023-04-10T09:27:32.806Z,95.80
2023-04-10T09:30:01.849Z,97.23
2023-04-10T09:32:42.883Z,98.29
2023-04-10T09:35:13.905Z,98.83
2023-04-10T09:37:45.108Z,99.01
2023-04-10T09:40:25.955Z,100.00
2023-04-10T09:42:55.980Z,100.00
2023-04-10T09:45:27.113Z,100.00
2023-04-10T09:48:05.041Z,99.99
2023-04-10T09:50:39.925Z,100.00
2023-04-10T09:53:09.477Z,100.00
2023-04-10T09:55:40.106Z,100.00
2023-04-10T09:58:10.125Z,100.00
2023-04-10T10:00:42.722Z,100.00
2023-04-10T10:03:14.613Z,100.00
2023-04-10T10:05:45.901Z,100.00
2023-04-10T10:11:03.759Z,100.00
2023-04-10T10:13:45.661Z,99.37
2023-04-10T10:16:22.653Z,99.62
2023-04-10T10:19:02.424Z,98.12
2023-04-10T10:21:34.128Z,96.64
2023-04-10T10:24:08.385Z,96.76
2023-04-10T10:26:41.737Z,94.11
2023-04-10T10:29:13.413Z,95.51
2023-04-10T10:31:42.963Z,93.94
2023-04-10T10:34:11.442Z,94.38
2023-04-10T10:36:41.805Z,93.01
2023-04-10T10:39:33.766Z,92.09
2023-04-10T10:42:15.771Z,93.47
2023-04-10T10:44:52.236Z,91.25
2023-04-10T10:47:28.372Z,91.36
2023-04-10T10:49:59.674Z,91.16
2023-04-10T10:52:49.794Z,90.96
2023-04-10T10:55:37.769Z,84.99
2023-04-10T10:58:09.455Z,85.94
2023-04-10T11:01:10.279Z,85.15
2023-04-10T11:03:39.938Z,81.79
2023-04-10T11:06:12.321Z,79.69
2023-04-10T11:08:45.808Z,76.98
2023-04-10T11:11:17.825Z,72.21
2023-04-10T11:14:20.253Z,72.38
2023-04-10T11:16:49.421Z,73.80
2023-04-10T11:19:22.829Z,74.26
2023-04-10T11:22:08.005Z,71.74
2023-04-10T11:25:00.536Z,71.59
2023-04-10T11:27:49.202Z,71.51
2023-04-10T11:30:33.704Z,71.61
2023-04-10T11:33:04.153Z,73.43
2023-04-10T11:35:34.160Z,71.91
2023-04-10T11:38:17.991Z,71.55
2023-04-10T11:41:06.864Z,69.18
2023-04-10T11:43:35.968Z,65.90
2023-04-10T11:46:08.628Z,62.30
2023-04-10T11:48:38.572Z,61.28
2023-04-10T11:51:13.027Z,60.02
2023-04-10T11:53:42.646Z,58.92
2023-04-10T11:56:22.533Z,57.88
2023-04-10T11:58:54.971Z,59.40
2023-04-10T12:01:25.557Z,59.96
2023-04-10T12:03:54.259Z,60.06
2023-04-10T12:06:23.397Z,58.52
2023-04-10T12:08:52.024Z,59.07
2023-04-10T12:11:22.478Z,60.39
2023-04-10T12:13:54.354Z,61.16
2023-04-10T12:16:26.567Z,60.72
2023-04-10T12:18:55.950Z,56.52
2023-04-10T12:21:24.572Z,56.52
2023-04-10T12:23:53.179Z,55.19
2023-04-10T12:26:22.396Z,52.95
2023-04-10T12:28:57.367Z,54.73
2023-04-10T12:31:32.861Z,52.92
2023-04-10T12:34:05.673Z,55.13
2023-04-10T12:36:35.295Z,54.41
2023-04-10T12:39:06.274Z,53.42
2023-04-10T12:41:36.185Z,51.32
2023-04-10T12:44:13.036Z,50.63
2023-04-10T12:46:44.557Z,49.98
2023-04-10T12:49:15.673Z,51.09
2023-04-10T12:51:49.113Z,51.08
2023-04-10T12:54:37.452Z,50.75
2023-04-10T12:57:07.188Z,49.83
2023-04-10T12:59:35.576Z,49.10
2023-04-10T13:02:05.475Z,48.60
2023-04-10T13:04:34.078Z,49.04
2023-04-10T13:07:02.991Z,48.26
2023-04-10T13:09:31.593Z,46.53
2023-04-10T13:12:00.046Z,47.18
2023-04-10T13:14:28.470Z,47.79
2023-04-10T13:16:56.864Z,48.20
2023-04-10T13:19:26.730Z,47.05
2023-04-10T13:21:55.268Z,46.02
2023-04-10T13:24:23.786Z,45.12
2023-04-10T13:26:52.314Z,45.79
2023-04-10T13:29:20.755Z,46.21
2023-04-10T13:31:50.226Z,46.66
2023-04-10T13:34:18.713Z,47.02
2023-04-10T13:36:51.470Z,45.15
2023-04-10T13:39:20.082Z,45.19
2023-04-10T13:41:48.465Z,45.56
2023-04-10T13:44:17.030Z,45.42
2023-04-10T13:46:45.587Z,45.32
2023-04-10T13:49:17.137Z,44.68
2023-04-10T13:51:47.824Z,44.54
2023-04-10T13:54:17.071Z,44.10
2023-04-10T13:56:46.523Z,44.04
2023-04-10T13:59:15.409Z,44.64
2023-04-10T14:01:43.904Z,44.61
2023-04-10T14:04:12.401Z,44.91
2023-04-10T14:06:40.870Z,45.47
2023-04-10T14:09:10.684Z,46.06
2023-04-10T14:11:39.192Z,46.40
2023-04-10T14:14:07.700Z,45.80
2023-04-10T14:16:36.298Z,45.38
2023-04-10T14:19:05.067Z,44.19
2023-04-10T14:21:33.583Z,43.65
2023-04-10T14:24:01.972Z,44.04
2023-04-10T14:26:31.957Z,43.88
2023-04-10T14:29:00.445Z,43.37
2023-04-10T14:31:29.669Z,43.62
2023-04-10T14:33:58.226Z,42.86
2023-04-10T14:36:28.832Z,42.45
2023-04-10T14:38:57.696Z,42.69
2023-04-10T14:41:26.527Z,41.62
2023-04-10T14:43:56.852Z,41.13
2023-04-10T14:46:26.615Z,40.21
2023-04-10T14:48:55.936Z,39.33
2023-04-10T14:51:24.832Z,38.07
2023-04-10T14:53:53.425Z,38.49
2023-04-10T14:56:22.045Z,37.46
2023-04-10T14:59:05.747Z,38.57
2023-04-10T15:01:36.763Z,38.66
2023-04-10T15:04:05.779Z,38.15
2023-04-10T15:06:34.950Z,38.11
2023-04-10T15:09:05.182Z,38.91
2023-04-10T15:11:34.516Z,39.69
2023-04-10T15:14:03.425Z,39.80
2023-04-10T15:16:32.272Z,40.33
2023-04-10T15:19:02.696Z,40.88
2023-04-10T15:21:31.611Z,41.27
2023-04-10T15:24:01.172Z,41.07
2023-04-10T15:26:29.695Z,41.75
2023-04-10T15:28:58.227Z,41.50
2023-04-10T15:31:26.718Z,41.28
2023-04-10T15:33:55.427Z,41.17
2023-04-10T15:36:25.686Z,40.99
2023-04-10T15:38:54.125Z,39.76
2023-04-10T15:41:23.002Z,39.13
2023-04-10T15:43:51.448Z,38.62
2023-04-10T15:46:19.933Z,38.97
2023-04-10T15:48:48.425Z,38.60
2023-04-10T15:51:16.824Z,39.15
2023-04-10T15:53:46.668Z,39.21
2023-04-10T15:56:16.148Z,39.84
2023-04-10T15:58:44.772Z,40.70
2023-04-10T16:01:13.311Z,41.24
2023-04-10T16:03:41.878Z,40.91
2023-04-10T16:06:10.764Z,41.46
2023-04-10T16:08:39.196Z,42.22
2023-04-10T16:11:10.717Z,42.78
2023-04-10T16:13:42.226Z,43.26
2023-04-10T16:16:16.094Z,43.57
2023-04-10T16:18:46.505Z,43.60
2023-04-10T16:21:15.462Z,43.81
2023-04-10T16:23:44.078Z,43.85
2023-04-10T16:26:16.545Z,43.60
2023-04-10T16:28:45.045Z,43.83
2023-04-10T16:31:13.489Z,44.38
2023-04-10T16:33:42.840Z,44.34
2023-04-10T16:36:11.744Z,44.45
2023-04-10T16:38:40.551Z,43.79
2023-04-10T16:41:17.011Z,43.17
2023-04-10T16:43:45.666Z,43.67
2023-04-10T16:46:16.209Z,43.95
2023-04-10T16:48:45.422Z,43.96
2023-04-10T16:51:17.847Z,43.44
2023-04-10T16:53:46.773Z,43.75
2023-04-10T16:56:17.350Z,44.05
2023-04-10T16:58:47.383Z,43.33
2023-04-10T17:01:18.877Z,43.80
2023-04-10T17:03:48.697Z,43.79
2023-04-10T17:06:17.886Z,43.75
2023-04-10T17:08:46.816Z,43.43
2023-04-10T17:11:17.239Z,43.40
2023-04-10T17:13:47.578Z,43.64
2023-04-10T17:16:16.535Z,43.60
2023-04-10T17:18:45.410Z,43.09
2023-04-10T17:21:14.806Z,43.26
2023-04-10T17:23:43.679Z,43.24
2023-04-10T17:26:17.015Z,44.00
2023-04-10T17:28:46.423Z,44.13
2023-04-10T17:31:16.379Z,44.63
2023-04-10T17:33:45.217Z,44.77
2023-04-10T17:36:14.505Z,45.35
2023-04-10T17:38:43.744Z,45.56
2023-04-10T17:41:17.154Z,45.63
2023-04-10T17:43:45.701Z,46.04
2023-04-10T17:46:15.801Z,46.12
2023-04-10T17:48:45.533Z,46.44
2023-04-10T17:51:14.983Z,47.12
2023-04-10T17:53:43.661Z,47.30
2023-04-10T17:56:20.809Z,47.56
2023-04-10T17:58:49.831Z,48.00
2023-04-10T18:01:27.555Z,48.38
2023-04-10T18:03:56.485Z,48.72
2023-04-10T18:06:25.872Z,49.25
2023-04-10T18:08:54.661Z,49.41
2023-04-10T18:11:25.422Z,49.46
2023-04-10T18:13:54.005Z,49.95
2023-04-10T18:16:22.599Z,50.33
2023-04-10T18:18:51.115Z,50.38
2023-04-10T18:21:20.038Z,50.98
2023-04-10T18:23:48.727Z,51.25
2023-04-10T18:26:20.715Z,52.10
2023-04-10T18:28:52.411Z,52.56
2023-04-10T18:31:21.155Z,53.44
2023-04-10T18:34:03.793Z,54.12
2023-04-10T18:36:36.340Z,54.28
2023-04-10T18:39:05.451Z,54.37
2023-04-10T18:41:34.403Z,54.56
2023-04-10T18:44:05.868Z,54.89
2023-04-10T18:46:38.316Z,54.84
2023-04-10T18:49:07.715Z,55.19
2023-04-10T18:51:37.532Z,55.52
2023-04-10T18:54:07.739Z,56.61
2023-04-10T18:56:38.253Z,56.62
2023-04-10T18:59:08.144Z,57.13
2023-04-10T19:01:36.765Z,57.18
2023-04-10T19:04:05.794Z,57.18
2023-04-10T19:06:36.888Z,57.60
2023-04-10T19:09:05.832Z,57.71
2023-04-10T19:11:34.391Z,57.77
2023-04-10T19:14:03.146Z,58.24
2023-04-10T19:19:07.268Z,58.66
2023-04-10T19:21:35.801Z,59.40
2023-04-10T19:24:04.348Z,59.45
2023-04-10T19:26:33.162Z,59.53
2023-04-10T19:29:01.627Z,59.96
2023-04-10T19:31:30.933Z,60.93
2023-04-10T19:34:30.772Z,61.49
2023-04-10T19:36:59.798Z,61.63
2023-04-10T19:39:31.201Z,62.01
2023-04-10T19:41:59.735Z,61.52
2023-04-10T19:44:28.697Z,61.71
2023-04-10T19:46:57.264Z,61.80
2023-04-10T19:49:29.355Z,62.98
2023-04-10T19:51:59.387Z,62.17
2023-04-10T19:54:28.218Z,62.34
2023-04-10T19:56:57.952Z,62.71
2023-04-10T19:59:26.793Z,64.56
2023-04-10T20:01:55.960Z,63.82
2023-04-10T20:04:24.946Z,64.01
2023-04-10T20:06:53.783Z,64.58
2023-04-10T20:09:23.717Z,64.08
2023-04-10T20:11:52.156Z,64.15
2023-04-10T20:14:21.837Z,64.65
2023-04-10T20:16:50.848Z,64.24
2023-04-10T20:19:19.827Z,64.84
2023-04-10T20:21:48.519Z,64.84
2023-04-10T20:24:16.996Z,64.56
2023-04-10T20:26:46.908Z,64.19
2023-04-10T20:29:15.596Z,64.47
2023-04-10T20:31:44.449Z,64.39
2023-04-10T20:34:13.346Z,64.53
2023-04-10T20:36:42.142Z,64.31
2023-04-10T20:39:10.924Z,64.90
2023-04-10T20:41:39.366Z,64.61
2023-04-10T20:44:09.233Z,64.60
2023-04-10T20:46:37.751Z,64.64
2023-04-10T20:49:06.528Z,64.53
2023-04-10T20:51:37.262Z,64.86
2023-04-10T20:54:06.975Z,64.59
2023-04-10T20:56:42.722Z,64.58
2023-04-10T20:59:13.370Z,64.54
2023-04-10T21:01:41.973Z,64.35
2023-04-10T21:04:10.867Z,64.93
2023-04-10T21:06:39.517Z,65.13
2023-04-10T21:09:08.182Z,65.29
2023-04-10T21:11:36.931Z,65.16
2023-04-10T21:14:05.638Z,65.87
2023-04-10T21:16:40.498Z,65.61
2023-04-10T21:19:09.322Z,65.66
2023-04-10T21:21:39.145Z,65.82
2023-04-10T21:24:07.856Z,66.02
2023-04-10T21:26:36.337Z,65.79
2023-04-10T21:29:04.847Z,65.57
2023-04-10T21:31:34.680Z,66.02
2023-04-10T21:34:03.313Z,66.23
2023-04-10T21:36:32.642Z,66.79
2023-04-10T21:39:01.442Z,67.12
2023-04-10T21:41:29.992Z,67.04
2023-04-10T21:44:00.384Z,67.79
2023-04-10T21:46:29.440Z,67.75
2023-04-10T21:48:59.460Z,68.41
2023-04-10T21:51:29.135Z,68.51
2023-04-10T21:53:57.948Z,69.57
2023-04-10T21:56:26.844Z,70.17
2023-04-10T21:58:55.967Z,70.40
2023-04-10T22:01:24.900Z,70.61
2023-04-10T22:03:54.299Z,70.87
2023-04-10T22:06:24.241Z,71.07
2023-04-10T22:08:52.903Z,70.86
2023-04-10T22:11:21.887Z,70.70
2023-04-10T22:13:50.693Z,71.18
2023-04-10T22:16:19.399Z,71.21
2023-04-10T22:18:48.153Z,71.11
2023-04-10T22:21:16.590Z,71.66
2023-04-10T22:23:46.401Z,71.99
2023-04-10T22:26:15.175Z,71.79
2023-04-10T22:28:43.887Z,71.91
2023-04-10T22:31:17.213Z,72.01
2023-04-10T22:33:46.085Z,72.35
2023-04-10T22:36:14.833Z,72.30
2023-04-10T22:38:45.002Z,72.56
2023-04-10T22:41:13.721Z,72.75
2023-04-10T22:43:42.256Z,73.24
2023-04-10T22:46:13.128Z,73.43
2023-04-10T22:48:41.843Z,73.85
2023-04-10T22:51:12.188Z,73.79
2023-04-10T22:53:41.260Z,73.92
2023-04-10T22:56:12.470Z,74.31
2023-04-10T22:58:41.911Z,74.09
2023-04-10T23:01:11.860Z,74.90
2023-04-10T23:03:40.643Z,75.46
2023-04-10T23:06:10.305Z,75.24
2023-04-10T23:08:39.084Z,75.29
2023-04-10T23:11:08.295Z,75.95
2023-04-10T23:13:38.137Z,76.86
2023-04-10T23:16:07.582Z,77.42
2023-04-10T23:18:37.505Z,78.45
2023-04-10T23:21:07.769Z,78.52
2023-04-10T23:23:36.537Z,78.56
2023-04-10T23:26:05.083Z,79.08
2023-04-10T23:28:33.508Z,79.79
2023-04-10T23:31:03.328Z,80.43
2023-04-10T23:33:32.029Z,80.39
2023-04-10T23:36:00.782Z,80.47
2023-04-10T23:38:29.542Z,80.93
2023-04-10T23:40:58.316Z,80.85
2023-04-10T23:43:27.110Z,81.50
2023-04-10T23:45:55.852Z,81.74
2023-04-10T23:48:25.999Z,81.96
2023-04-10T23:51:05.353Z,82.16
2023-04-10T23:53:34.247Z,83.12
2023-04-10T23:56:03.315Z,82.54
2023-04-10T23:58:31.768Z,82.45
